Time;durP1;ratioP1;P1;durP2;ratioP2;P2;SDS_P1;SDS_P2;PMS_P1;PMS_P2;Temp;Humidity;BMP_temperature;BMP_pressure;BME280_temperature;BME280_humidity;BME280_pressure;Samples;Min_cycle;Max_cycle;Signal;HPM_P1;HPM_P2
2022/09/06 00:01:13;;;;;;;6.50;3.30;;;;;;;13.71;51.06;98601.85;106522;1281;22550;-90
2022/09/06 00:03:41;;;;;;;8.00;3.30;;;;;;;13.70;51.03;98595.84;105964;1284;22602;-91
2022/09/06 00:06:13;;;;;;;8.00;3.40;;;;;;;13.69;51.13;98593.10;106042;1284;25663;-92
2022/09/06 00:08:44;;;;;;;5.80;3.20;;;;;;;13.68;51.19;98587.54;106241;1281;25567;-93
2022/09/06 00:11:13;;;;;;;9.40;3.60;;;;;;;13.67;51.34;98586.31;105972;1281;23430;-92
2022/09/06 00:13:41;;;;;;;6.70;3.70;;;;;;;13.66;51.12;98587.59;106360;1281;22566;-92
2022/09/06 00:16:14;;;;;;;5.70;3.90;;;;;;;13.64;51.28;98590.17;106350;1281;25355;-91
2022/09/06 00:18:43;;;;;;;6.40;3.20;;;;;;;13.61;51.33;98591.35;106450;1281;22888;-91
2022/09/06 00:21:16;;;;;;;4.60;3.20;;;;;;;13.59;51.33;98589.77;106534;1281;22563;-94
2022/09/06 00:23:44;;;;;;;5.30;3.60;;;;;;;13.58;51.54;98586.45;106395;1281;25392;-94
2022/09/06 00:26:13;;;;;;;6.90;3.60;;;;;;;13.56;51.63;98587.41;106329;1281;24016;-91
2022/09/06 00:28:41;;;;;;;10.90;4.10;;;;;;;13.54;51.53;98589.07;106221;1281;23031;-93
2022/09/06 00:31:19;;;;;;;4.40;3.10;;;;;;;13.50;51.82;98584.48;106059;1281;22550;-91
2022/09/06 00:33:48;;;;;;;7.20;3.40;;;;;;;13.46;51.89;98582.56;106028;1281;24216;-92
2022/09/06 00:36:16;;;;;;;5.20;3.40;;;;;;;13.44;51.76;98580.55;105961;1281;22731;-92
2022/09/06 00:38:45;;;;;;;5.50;3.80;;;;;;;13.42;52.04;98576.31;106008;1281;25558;-91
2022/09/06 00:41:15;;;;;;;5.00;3.60;;;;;;;13.38;52.09;98577.95;106150;1281;22491;-91
2022/09/06 00:43:43;;;;;;;6.10;3.30;;;;;;;13.36;52.06;98581.08;106250;1281;22702;-92
2022/09/06 00:46:17;;;;;;;5.00;3.30;;;;;;;13.33;52.17;98585.90;106180;1281;22583;-92
2022/09/06 00:48:49;;;;;;;5.70;3.80;;;;;;;13.31;52.16;98590.04;106012;1281;24753;-92
2022/09/06 00:51:20;;;;;;;7.30;3.60;;;;;;;13.29;52.30;98588.41;106053;1281;24959;-91
2022/09/06 00:53:49;;;;;;;8.10;3.40;;;;;;;13.29;52.41;98589.66;106004;1281;22887;-91
2022/09/06 00:56:18;;;;;;;6.20;3.40;;;;;;;13.27;52.33;98589.26;105939;1281;24230;-91
2022/09/06 00:58:48;;;;;;;6.90;4.00;;;;;;;13.26;52.32;98591.49;106079;1281;22623;-94
2022/09/06 01:01:16;;;;;;;6.20;3.90;;;;;;;13.23;52.63;98597.69;106080;1281;25358;-89
2022/09/06 01:03:44;;;;;;;6.00;4.10;;;;;;;13.22;52.63;98591.94;106174;1281;24335;-90
2022/09/06 01:06:51;;;;;;;4.90;3.50;;;;;;;13.21;52.71;98584.48;106088;1279;22534;-92
2022/09/06 01:09:31;;;;;;;6.70;4.10;;;;;;;13.21;52.71;98584.85;105390;1285;25347;-91
2022/09/06 01:12:43;;;;;;;9.80;3.60;;;;;;;13.19;52.94;98582.00;105503;1287;25368;-90
2022/09/06 01:15:16;;;;;;;8.00;3.70;;;;;;;13.21;53.07;98575.33;105516;1286;22567;-90
2022/09/06 01:18:08;;;;;;;7.00;4.10;;;;;;;13.22;53.21;98572.33;105472;1287;22567;-90
2022/09/06 01:21:20;;;;;;;10.70;4.20;;;;;;;13.24;53.18;98567.87;105540;1287;22724;-90
2022/09/06 01:24:24;;;;;;;6.00;4.00;;;;;;;13.27;53.34;98571.88;106341;1285;22538;-90
2022/09/06 01:27:06;;;;;;;7.90;4.30;;;;;;;13.29;53.32;98572.27;105884;1286;22677;-93
2022/09/06 01:29:53;;;;;;;9.30;4.10;;;;;;;13.31;53.47;98570.34;105555;1287;22566;-91
2022/09/06 01:32:39;;;;;;;7.70;4.50;;;;;;;13.33;53.49;98573.13;105858;1286;23141;-91
2022/09/06 01:35:21;;;;;;;5.90;3.90;;;;;;;13.34;53.59;98570.56;105499;1285;22534;-92
2022/09/06 01:37:49;;;;;;;6.60;4.00;;;;;;;13.35;53.69;98569.61;105398;1287;22563;-91
2022/09/06 01:40:17;;;;;;;11.70;4.10;;;;;;;13.36;53.63;98568.84;105476;1287;24379;-91
2022/09/06 01:42:48;;;;;;;7.10;4.80;;;;;;;13.36;53.80;98571.33;105499;1287;25627;-91
2022/09/06 01:45:21;;;;;;;10.90;4.80;;;;;;;13.35;53.76;98573.73;105384;1286;22757;-91
2022/09/06 01:48:07;;;;;;;14.30;4.40;;;;;;;13.33;53.89;98567.16;105832;1281;22750;-90
2022/09/06 01:50:56;;;;;;;8.10;4.70;;;;;;;13.28;53.84;98565.20;106181;1279;22631;-91
2022/09/06 01:53:47;;;;;;;8.60;4.90;;;;;;;13.25;54.02;98565.90;106138;1279;22574;-93
2022/09/06 01:56:29;;;;;;;6.60;4.60;;;;;;;13.20;53.99;98566.40;106110;1279;27892;-91
2022/09/06 01:59:01;;;;;;;7.20;4.30;;;;;;;13.14;54.15;98565.00;106263;1279;22566;-92
2022/09/06 02:01:58;;;;;;;6.00;4.30;;;;;;;13.09;54.10;98563.15;106280;1279;22795;-92
2022/09/06 02:04:32;;;;;;;7.00;4.40;;;;;;;13.02;54.24;98564.57;106068;1281;25621;-93
2022/09/06 02:07:14;;;;;;;10.30;4.30;;;;;;;12.97;54.44;98559.30;105983;1281;22556;-92
2022/09/06 02:09:45;;;;;;;7.60;4.60;;;;;;;12.90;54.35;98557.69;106210;1279;25662;-92
2022/09/06 02:12:17;;;;;;;5.80;4.00;;;;;;;12.86;54.63;98558.09;106366;1279;22682;-91
2022/09/06 02:15:01;;;;;;;9.00;4.10;;;;;;;12.80;54.63;98558.84;106408;1279;22679;-92
2022/09/06 02:17:34;;;;;;;8.90;4.80;;;;;;;12.75;54.83;98559.31;106326;1279;22675;-91
2022/09/06 02:20:23;;;;;;;6.90;4.70;;;;;;;12.70;54.98;98553.27;106439;1279;22545;-92
2022/09/06 02:22:55;;;;;;;6.90;4.50;;;;;;;12.65;55.20;98551.52;106296;1279;24215;-91
2022/09/06 02:25:28;;;;;;;11.30;4.50;;;;;;;12.61;55.31;98553.59;106307;1279;22718;-92
2022/09/06 02:27:56;;;;;;;8.70;4.30;;;;;;;12.59;55.18;98555.27;106271;1281;22778;-90
2022/09/06 02:30:25;;;;;;;6.50;4.60;;;;;;;12.55;55.27;98552.51;106211;1279;25418;-92
2022/09/06 02:33:01;;;;;;;7.00;4.40;;;;;;;12.50;55.43;98548.37;106098;1279;22857;-90
2022/09/06 02:35:30;;;;;;;7.80;4.60;;;;;;;12.45;55.59;98543.03;106137;1279;25424;-90
2022/09/06 02:37:58;;;;;;;8.50;4.90;;;;;;;12.40;55.85;98542.35;106055;1279;22777;-91
2022/09/06 02:40:26;;;;;;;8.30;5.10;;;;;;;12.37;55.87;98541.65;106253;1279;22619;-93
2022/09/06 02:42:54;;;;;;;5.40;4.70;;;;;;;12.35;55.93;98543.25;106223;1279;22550;-92
2022/09/06 02:45:22;;;;;;;9.60;5.20;;;;;;;12.33;55.93;98542.80;106306;1279;25367;-91
2022/09/06 02:47:50;;;;;;;6.80;4.70;;;;;;;12.32;56.31;98541.68;105871;1279;23967;-92
2022/09/06 02:50:18;;;;;;;8.70;4.80;;;;;;;12.32;56.48;98540.44;106238;1279;22784;-90
2022/09/06 02:52:46;;;;;;;7.90;4.80;;;;;;;12.31;56.26;98544.13;105913;1279;24290;-91
2022/09/06 02:55:14;;;;;;;8.20;5.10;;;;;;;12.30;56.53;98542.42;106122;1281;22571;-90
2022/09/06 02:57:42;;;;;;;5.90;4.40;;;;;;;12.27;56.48;98542.39;106326;1279;22547;-92
2022/09/06 03:00:11;;;;;;;9.20;5.10;;;;;;;12.24;56.44;98538.29;106082;1281;22544;-92
2022/09/06 03:02:39;;;;;;;7.90;5.30;;;;;;;12.20;56.62;98535.49;106181;1279;24336;-91
2022/09/06 03:05:07;;;;;;;6.50;4.70;;;;;;;12.16;56.63;98532.19;106277;1279;22705;-91
2022/09/06 03:07:35;;;;;;;10.00;5.80;;;;;;;12.13;56.86;98528.57;106469;1279;22718;-90
2022/09/06 03:10:04;;;;;;;7.10;4.80;;;;;;;12.09;56.93;98524.80;106858;1279;22544;-89
2022/09/06 03:12:32;;;;;;;10.40;5.50;;;;;;;12.04;57.04;98532.38;106472;1279;22696;-92
2022/09/06 03:15:00;;;;;;;7.70;4.80;;;;;;;12.00;57.10;98531.83;106567;1279;22693;-91
2022/09/06 03:17:28;;;;;;;8.30;4.90;;;;;;;11.96;57.21;98533.23;106460;1279;22544;-93
2022/09/06 03:19:56;;;;;;;8.90;4.90;;;;;;;11.94;57.34;98536.46;106303;1279;22563;-91
2022/09/06 03:22:24;;;;;;;7.00;5.20;;;;;;;11.90;57.40;98535.59;106233;1279;22773;-93
2022/09/06 03:24:52;;;;;;;9.50;5.10;;;;;;;11.87;57.39;98536.66;106467;1279;24345;-92
2022/09/06 03:27:20;;;;;;;6.80;4.70;;;;;;;11.83;57.43;98533.45;106285;1279;25299;-91
2022/09/06 03:29:48;;;;;;;8.70;4.90;;;;;;;11.78;57.62;98532.33;106151;1279;24369;-91
2022/09/06 03:32:16;;;;;;;9.00;5.20;;;;;;;11.75;57.70;98534.10;106280;1279;22608;-93
2022/09/06 03:34:44;;;;;;;8.70;5.00;;;;;;;11.72;57.82;98536.88;106228;1279;22568;-91
2022/09/06 03:37:12;;;;;;;7.70;5.20;;;;;;;11.71;58.13;98537.23;106298;1279;22554;-92
2022/09/06 03:39:40;;;;;;;6.40;4.80;;;;;;;11.70;58.19;98530.01;106310;1279;25445;-89
2022/09/06 03:42:08;;;;;;;7.40;5.00;;;;;;;11.68;58.23;98530.62;106389;1279;24322;-92
2022/09/06 03:44:36;;;;;;;7.80;5.60;;;;;;;11.67;58.27;98532.69;106529;1279;22779;-92
2022/09/06 03:47:04;;;;;;;7.20;5.20;;;;;;;11.64;58.19;98533.05;106547;1279;22519;-92
2022/09/06 03:49:32;;;;;;;9.70;5.70;;;;;;;11.60;58.37;98532.52;106430;1279;22673;-91
2022/09/06 03:52:00;;;;;;;8.10;5.80;;;;;;;11.58;58.43;98530.80;106507;1279;22571;-91
2022/09/06 03:54:28;;;;;;;8.00;5.40;;;;;;;11.54;58.54;98528.33;106699;1279;22620;-91
2022/09/06 03:56:56;;;;;;;8.10;5.30;;;;;;;11.48;58.74;98528.62;106580;1279;22576;-92
2022/09/06 03:59:24;;;;;;;8.00;5.30;;;;;;;11.40;58.71;98529.80;106613;1279;22709;-93
2022/09/06 04:01:53;;;;;;;7.70;5.10;;;;;;;11.34;59.08;98533.15;106563;1280;22703;-93
2022/09/06 04:04:21;;;;;;;11.70;5.10;;;;;;;11.29;59.09;98532.23;106663;1279;24216;-91
2022/09/06 04:06:49;;;;;;;13.50;5.90;;;;;;;11.26;59.32;98528.22;106339;1279;22533;-92
2022/09/06 04:09:17;;;;;;;9.30;5.60;;;;;;;11.25;59.47;98522.25;106383;1279;22556;-92
2022/09/06 04:11:45;;;;;;;8.00;6.00;;;;;;;11.27;59.65;98525.79;106566;1279;24372;-91
2022/09/06 04:14:13;;;;;;;7.20;5.50;;;;;;;11.32;59.70;98520.70;106482;1279;22553;-91
2022/09/06 04:16:41;;;;;;;10.10;5.80;;;;;;;11.38;59.92;98520.86;106934;1279;22726;-93
2022/09/06 04:19:09;;;;;;;8.70;5.80;;;;;;;11.42;59.94;98520.54;106625;1279;24211;-92
2022/09/06 04:21:37;;;;;;;8.60;5.20;;;;;;;11.43;60.07;98521.29;106369;1279;25449;-91
2022/09/06 04:24:06;;;;;;;25.60;23.10;;;;;;;11.42;60.15;98525.66;106564;1279;24369;-91
2022/09/06 04:26:34;;;;;;;11.60;10.30;;;;;;;11.41;60.40;98528.80;106838;1279;22715;-92
2022/09/06 04:29:03;;;;;;;10.20;5.90;;;;;;;11.40;60.37;98525.09;107122;1279;22568;-89
2022/09/06 04:31:31;;;;;;;8.80;6.60;;;;;;;11.37;60.30;98528.73;106496;1279;22491;-93
2022/09/06 04:33:59;;;;;;;8.60;5.40;;;;;;;11.35;60.42;98528.13;106551;1279;24266;-92
2022/09/06 04:36:28;;;;;;;10.00;5.50;;;;;;;11.34;60.37;98529.85;106248;1280;26684;-92
2022/09/06 04:38:57;;;;;;;7.90;6.00;;;;;;;11.31;60.57;98532.33;106803;1279;22665;-92
2022/09/06 04:41:25;;;;;;;8.10;5.70;;;;;;;11.30;60.65;98533.58;106454;1279;24354;-91
2022/09/06 04:43:53;;;;;;;8.00;5.60;;;;;;;11.29;60.76;98532.88;106541;1279;22680;-91
2022/09/06 04:46:24;;;;;;;7.10;5.50;;;;;;;11.29;60.77;98531.04;106774;1279;22639;-92
2022/09/06 04:48:54;;;;;;;7.20;5.60;;;;;;;11.28;60.88;98530.34;106468;1279;22622;-94
2022/09/06 04:51:23;;;;;;;8.80;5.80;;;;;;;11.28;61.13;98531.92;106632;1279;22700;-93
2022/09/06 04:53:52;;;;;;;7.10;5.50;;;;;;;11.27;61.00;98532.69;106880;1279;22599;-93
2022/09/06 04:56:22;;;;;;;9.00;5.90;;;;;;;11.26;61.07;98534.41;106529;1279;22638;-91
2022/09/06 04:58:52;;;;;;;7.80;5.80;;;;;;;11.27;61.13;98536.90;106753;1279;22640;-91
2022/09/06 05:01:21;;;;;;;9.50;6.30;;;;;;;11.30;61.16;98541.60;107588;1279;22717;-92
2022/09/06 05:03:49;;;;;;;10.40;5.40;;;;;;;11.34;61.31;98539.89;106870;1279;22545;-91
2022/09/06 05:06:23;;;;;;;8.40;5.50;;;;;;;11.39;61.39;98539.51;106651;1279;22638;-92
2022/09/06 05:08:51;;;;;;;7.20;5.90;;;;;;;11.44;61.50;98541.23;106555;1279;24273;-92
2022/09/06 05:11:19;;;;;;;9.20;5.90;;;;;;;11.47;61.41;98540.02;106668;1279;26619;-91
2022/09/06 05:13:49;;;;;;;20.10;6.20;;;;;;;11.53;61.85;98542.80;106757;1279;22572;-90
2022/09/06 05:16:17;;;;;;;10.70;7.10;;;;;;;11.57;61.75;98542.27;106930;1279;22541;-94
2022/09/06 05:18:45;;;;;;;9.40;6.30;;;;;;;11.67;61.71;98543.33;106680;1279;22613;-91
2022/09/06 05:21:14;;;;;;;10.50;6.30;;;;;;;11.79;61.91;98540.62;106601;1279;24228;-91
2022/09/06 05:23:43;;;;;;;8.10;6.20;;;;;;;11.91;62.27;98543.25;106292;1279;24162;-91
2022/09/06 05:26:11;;;;;;;8.60;6.30;;;;;;;12.02;62.28;98547.58;106708;1279;22574;-91
2022/09/06 05:28:41;;;;;;;9.10;6.50;;;;;;;12.13;62.36;98551.58;106953;1280;26840;-91
2022/09/06 05:31:24;;;;;;;8.80;7.00;;;;;;;12.21;62.38;98545.95;106483;1279;24299;-91
2022/09/06 05:33:53;;;;;;;13.40;6.90;;;;;;;12.33;62.44;98550.15;106142;1279;22870;-91
2022/09/06 05:36:22;;;;;;;10.40;7.30;;;;;;;12.41;62.27;98552.73;106388;1279;22473;-91
2022/09/06 05:38:52;;;;;;;10.20;7.20;;;;;;;12.50;62.18;98558.39;106737;1279;22718;-92
2022/09/06 05:41:21;;;;;;;11.70;7.80;;;;;;;12.57;62.08;98556.58;106728;1279;22606;-90
2022/09/06 05:43:49;;;;;;;12.30;7.70;;;;;;;12.65;61.86;98555.10;106824;1279;24359;-93
2022/09/06 05:46:18;;;;;;;10.80;7.40;;;;;;;12.73;62.05;98550.80;106550;1279;22700;-91
2022/09/06 05:49:03;;;;;;;11.60;7.30;;;;;;;12.80;61.77;98545.92;106371;1279;24307;-94
2022/09/06 05:51:31;;;;;;;9.30;7.10;;;;;;;12.88;61.94;98544.64;106419;1279;23990;-93
2022/09/06 05:53:59;;;;;;;9.40;6.60;;;;;;;12.96;61.68;98544.94;106386;1279;24327;-91
2022/09/06 05:56:28;;;;;;;14.80;6.70;;;;;;;13.04;61.78;98547.27;106221;1279;24438;-92
2022/09/06 05:58:56;;;;;;;9.30;6.40;;;;;;;13.13;61.74;98549.23;106281;1279;23961;-91
2022/09/06 06:01:27;;;;;;;9.80;6.70;;;;;;;13.20;61.59;98550.05;106328;1279;22691;-90
2022/09/06 06:03:58;;;;;;;9.70;6.00;;;;;;;13.28;61.37;98549.63;106475;1279;24406;-94
2022/09/06 06:06:28;;;;;;;10.60;6.10;;;;;;;13.38;61.38;98550.84;106658;1279;24283;-92
2022/09/06 06:08:57;;;;;;;9.40;6.30;;;;;;;13.48;61.53;98550.56;106327;1279;22741;-92
2022/09/06 06:11:26;;;;;;;8.60;5.80;;;;;;;13.58;61.32;98551.06;106471;1279;23107;-92
2022/09/06 06:13:54;;;;;;;9.80;6.20;;;;;;;13.69;61.15;98551.06;106515;1279;24432;-92
2022/09/06 06:16:22;;;;;;;10.30;6.20;;;;;;;13.79;60.83;98548.31;106582;1279;22568;-92
2022/09/06 06:18:50;;;;;;;10.20;6.70;;;;;;;13.88;60.86;98545.94;106426;1279;23240;-93
2022/09/06 06:21:24;;;;;;;7.70;6.30;;;;;;;13.98;60.63;98547.20;106428;1279;24224;-90
2022/09/06 06:23:58;;;;;;;11.20;6.10;;;;;;;14.09;60.66;98545.59;106465;1279;24231;-92
2022/09/06 06:26:29;;;;;;;10.90;6.50;;;;;;;14.20;60.28;98544.36;106544;1279;22796;-92
2022/09/06 06:29:00;;;;;;;10.00;6.10;;;;;;;14.30;60.45;98541.48;106313;1279;22624;-92
2022/09/06 06:31:31;;;;;;;11.60;6.60;;;;;;;14.41;60.43;98534.34;106441;1279;22629;-92
2022/09/06 06:34:02;;;;;;;13.90;6.00;;;;;;;14.53;60.34;98536.93;106384;1279;22675;-92
2022/09/06 06:36:32;;;;;;;14.40;6.60;;;;;;;14.63;60.06;98539.30;106509;1279;22716;-91
2022/09/06 06:39:04;;;;;;;9.10;5.90;;;;;;;14.73;60.00;98541.11;106474;1279;22555;-92
2022/09/06 06:41:32;;;;;;;11.10;5.70;;;;;;;14.84;60.01;98539.64;106464;1279;22536;-92
2022/09/06 06:44:03;;;;;;;9.30;6.10;;;;;;;14.93;59.82;98536.31;106262;1279;22877;-91
2022/09/06 06:46:36;;;;;;;8.30;5.60;;;;;;;15.06;59.92;98539.83;106468;1279;22565;-92
2022/09/06 06:49:04;;;;;;;8.50;6.10;;;;;;;15.19;59.78;98539.98;106539;1279;22558;-91
2022/09/06 06:51:36;;;;;;;10.60;5.80;;;;;;;15.31;59.70;98539.92;107319;1279;24271;-91
2022/09/06 06:54:04;;;;;;;9.60;5.40;;;;;;;15.44;59.48;98545.95;106795;1279;25450;-92
2022/09/06 06:56:35;;;;;;;13.60;6.60;;;;;;;15.55;59.43;98547.70;106233;1279;25388;-90
2022/09/06 06:59:06;;;;;;;12.70;6.00;;;;;;;15.65;59.08;98547.33;106414;1279;25365;-92
2022/09/06 07:01:35;;;;;;;12.40;6.00;;;;;;;15.77;58.98;98548.36;106224;1279;23987;-91
2022/09/06 07:04:46;;;;;;;11.20;6.20;;;;;;;15.87;58.73;98546.48;106018;1279;24206;-93
2022/09/06 07:08:55;;;;;;;11.00;5.90;;;;;;;15.98;58.21;98545.23;106345;1279;22560;-93
2022/09/06 07:12:44;;;;;;;10.60;5.30;;;;;;;16.05;58.01;98546.29;106558;1279;22855;-91
2022/09/06 07:16:08;;;;;;;12.40;6.20;;;;;;;16.18;57.79;98547.45;106884;1279;22641;-90
2022/09/06 07:18:40;;;;;;;9.90;5.50;;;;;;;16.26;57.16;98545.66;106358;1279;25358;-94
2022/09/06 07:21:13;;;;;;;9.10;5.50;;;;;;;16.34;56.53;98546.67;106466;1279;22708;-92
2022/09/06 07:24:06;;;;;;;9.20;5.40;;;;;;;16.42;56.83;98547.19;106406;1279;25241;-91
2022/09/06 07:26:38;;;;;;;9.20;5.70;;;;;;;16.49;56.13;98549.55;106382;1278;22703;-92
2022/09/06 07:29:07;;;;;;;9.50;6.10;;;;;;;16.53;55.63;98555.69;106253;1279;22558;-93
2022/09/06 07:31:37;;;;;;;7.80;4.60;;;;;;;16.62;56.09;98558.78;106314;1279;24222;-91
2022/09/06 07:34:25;;;;;;;8.70;4.90;;;;;;;16.76;55.86;98564.70;106292;1279;22535;-93
2022/09/06 07:36:55;;;;;;;7.00;5.70;;;;;;;16.82;55.05;98563.20;106247;1279;22708;-91
2022/09/06 07:39:23;;;;;;;9.70;5.60;;;;;;;16.90;55.32;98573.17;106172;1279;22544;-91
2022/09/06 07:41:51;;;;;;;9.60;5.20;;;;;;;17.03;54.93;98577.70;106600;1279;25314;-92
2022/09/06 07:44:19;;;;;;;9.00;5.30;;;;;;;17.11;53.96;98575.04;107153;1279;22571;-93
2022/09/06 07:46:47;;;;;;;8.60;5.10;;;;;;;17.17;54.35;98571.41;106881;1279;24085;-94
2022/09/06 07:49:16;;;;;;;8.80;5.40;;;;;;;17.29;54.06;98573.47;107324;1279;22618;-94
2022/09/06 07:51:45;;;;;;;7.50;4.80;;;;;;;17.40;53.71;98576.27;107651;1279;23941;-95
2022/09/06 07:54:13;;;;;;;9.70;4.60;;;;;;;17.48;53.85;98579.55;107143;1279;22573;-93
2022/09/06 07:56:58;;;;;;;6.50;4.60;;;;;;;17.60;53.36;98572.70;106602;1279;24279;-92
2022/09/06 07:59:26;;;;;;;8.90;5.30;;;;;;;17.67;53.07;98574.89;106551;1279;22555;-89
2022/09/06 08:01:54;;;;;;;8.10;4.90;;;;;;;17.69;52.96;98573.33;106907;1277;23998;-92
2022/09/06 08:04:23;;;;;;;8.40;5.40;;;;;;;17.68;52.88;98568.97;106887;1279;22806;-93
2022/09/06 08:06:52;;;;;;;9.30;5.00;;;;;;;17.76;52.48;98569.52;106632;1279;23497;-92
2022/09/06 08:09:41;;;;;;;8.40;5.00;;;;;;;17.84;52.50;98568.47;106413;1279;24684;-91
2022/09/06 08:12:09;;;;;;;9.00;4.70;;;;;;;17.91;52.01;98567.86;106575;1279;23228;-92
2022/09/06 08:14:37;;;;;;;9.50;4.90;;;;;;;18.03;51.70;98568.43;106412;1279;22576;-90
2022/09/06 08:17:05;;;;;;;9.60;5.00;;;;;;;18.12;51.40;98572.90;106431;1279;24196;-90
2022/09/06 08:19:33;;;;;;;11.80;4.90;;;;;;;18.22;51.28;98569.91;106376;1279;25252;-93
2022/09/06 08:22:01;;;;;;;11.60;5.60;;;;;;;18.30;51.34;98572.61;106416;1279;22565;-92
2022/09/06 08:24:30;;;;;;;10.00;4.50;;;;;;;18.40;51.14;98571.19;106407;1279;25830;-91
2022/09/06 08:26:58;;;;;;;7.70;4.50;;;;;;;18.50;51.31;98567.52;106450;1279;25525;-92
2022/09/06 08:29:26;;;;;;;10.10;4.90;;;;;;;18.64;50.19;98567.46;107742;1279;22548;-93
2022/09/06 08:31:54;;;;;;;10.20;4.30;;;;;;;18.73;49.97;98567.23;107332;1279;22697;-89
2022/09/06 08:34:22;;;;;;;9.30;4.50;;;;;;;18.84;50.04;98565.38;107596;1279;25365;-90
2022/09/06 08:36:50;;;;;;;13.70;4.60;;;;;;;18.96;49.99;98565.50;107254;1278;24307;-91
2022/09/06 08:39:18;;;;;;;9.70;4.90;;;;;;;18.99;49.77;98559.52;107829;1279;22544;-91
2022/09/06 08:42:02;;;;;;;16.50;4.30;;;;;;;18.99;49.35;98557.56;106418;1279;25924;-91
2022/09/06 08:44:42;;;;;;;8.60;3.80;;;;;;;19.11;49.68;98555.23;106350;1279;22561;-91
2022/09/06 08:47:26;;;;;;;9.50;4.60;;;;;;;19.20;48.87;98556.54;106240;1278;22484;-91
2022/09/06 08:50:04;;;;;;;9.20;4.10;;;;;;;19.15;48.08;98560.52;106402;1279;25855;-91
2022/09/06 08:52:38;;;;;;;7.20;3.70;;;;;;;19.08;48.56;98554.02;106675;1281;25358;-91
2022/09/06 08:56:07;;;;;;;12.80;3.80;;;;;;;19.16;47.44;98560.61;106433;1278;24181;-92
2022/09/06 08:59:04;;;;;;;9.10;3.90;;;;;;;19.20;47.58;98560.37;106015;1279;22480;-90
2022/09/06 09:01:44;;;;;;;7.70;3.50;;;;;;;19.20;46.60;98557.40;106432;1279;22538;-92
2022/09/06 09:04:18;;;;;;;7.70;3.80;;;;;;;19.26;46.45;98554.34;106356;1279;25346;-92
2022/09/06 09:06:57;;;;;;;9.40;3.30;;;;;;;19.36;46.54;98552.61;106281;1279;22689;-92
2022/09/06 09:09:28;;;;;;;5.80;3.60;;;;;;;19.35;46.28;98549.23;106236;1279;22535;-93
2022/09/06 09:12:00;;;;;;;7.90;3.90;;;;;;;19.32;45.97;98550.44;106390;1279;22742;-91
2022/09/06 09:14:38;;;;;;;8.20;3.80;;;;;;;19.26;45.09;98548.33;107798;1281;22607;-92
2022/09/06 09:17:21;;;;;;;10.50;4.30;;;;;;;19.15;45.58;98548.34;106613;1279;25922;-92
2022/09/06 09:19:49;;;;;;;6.40;3.80;;;;;;;19.08;45.45;98541.46;106250;1279;23818;-92
2022/09/06 09:22:19;;;;;;;7.90;3.80;;;;;;;18.99;45.06;98540.16;106255;1279;22697;-92
2022/09/06 09:24:50;;;;;;;9.10;3.50;;;;;;;18.91;45.42;98537.92;106189;1279;23290;-92
2022/09/06 09:27:26;;;;;;;10.00;3.90;;;;;;;18.87;45.31;98539.90;106359;1279;22686;-90
2022/09/06 09:29:53;;;;;;;8.00;3.30;;;;;;;18.82;45.41;98537.64;106303;1279;24341;-91
2022/09/06 09:32:44;;;;;;;6.20;3.80;;;;;;;18.80;45.48;98533.75;106283;1279;22573;-92
2022/09/06 09:35:22;;;;;;;9.10;3.70;;;;;;;18.85;45.67;98530.39;106155;1279;22705;-90
2022/09/06 09:38:18;;;;;;;9.00;3.80;;;;;;;18.92;45.37;98531.27;106248;1279;22564;-91
2022/09/06 09:40:55;;;;;;;8.70;3.40;;;;;;;19.00;45.28;98529.11;106224;1279;25548;-90
2022/09/06 09:43:30;;;;;;;6.80;3.60;;;;;;;19.12;44.51;98525.28;106278;1279;24266;-90
2022/09/06 09:46:37;;;;;;;7.00;3.60;;;;;;;19.13;44.71;98518.38;106040;1279;25359;-90
2022/09/06 09:49:10;;;;;;;5.30;3.80;;;;;;;19.12;44.37;98518.32;106298;1279;24318;-92
2022/09/06 09:52:03;;;;;;;6.30;3.70;;;;;;;19.14;44.61;98515.14;106338;1279;24204;-91
2022/09/06 09:54:36;;;;;;;8.00;3.40;;;;;;;19.25;44.58;98514.48;105101;1279;1540771;-93
2022/09/06 09:57:10;;;;;;;6.00;3.50;;;;;;;19.25;43.72;98507.83;106040;1279;25425;-90
2022/09/06 09:59:44;;;;;;;9.40;3.50;;;;;;;19.18;43.79;98506.45;106172;1279;24355;-93
2022/09/06 10:02:27;;;;;;;19.70;3.90;;;;;;;19.33;43.17;98501.63;106219;1279;23955;-91
2022/09/06 10:05:12;;;;;;;11.80;3.50;;;;;;;19.43;43.40;98496.32;106239;1279;22560;-91
2022/09/06 10:07:46;;;;;;;7.40;3.30;;;;;;;19.42;43.31;98489.20;106183;1279;22548;-93
2022/09/06 10:10:33;;;;;;;6.60;3.20;;;;;;;19.40;43.09;98484.27;106001;1279;22691;-91
2022/09/06 10:13:21;;;;;;;11.30;3.20;;;;;;;19.57;43.21;98484.02;106170;1279;22666;-93
2022/09/06 10:15:52;;;;;;;6.70;3.20;;;;;;;19.75;42.83;98484.74;106129;1279;22761;-91
2022/09/06 10:18:51;;;;;;;12.10;3.20;;;;;;;19.87;42.92;98479.86;106082;1279;22541;-89
2022/09/06 10:21:21;;;;;;;9.60;3.20;;;;;;;19.96;42.33;98482.63;105545;1285;22768;-88
2022/09/06 10:24:08;;;;;;;7.70;3.40;;;;;;;19.98;42.72;98484.23;106360;1285;22550;-91
2022/09/06 10:26:58;;;;;;;7.00;3.30;;;;;;;20.04;42.63;98475.38;105999;1285;22586;-91
2022/09/06 10:30:08;;;;;;;8.50;3.30;;;;;;;20.05;42.80;98474.29;105837;1285;22676;-90
2022/09/06 10:32:51;;;;;;;11.10;4.80;;;;;;;20.18;42.45;98472.09;107138;1290;22620;-89
2022/09/06 10:35:29;;;;;;;8.40;4.10;;;;;;;20.37;42.56;98473.31;105272;1290;22713;-90
2022/09/06 10:38:16;;;;;;;7.80;3.70;;;;;;;20.49;41.96;98476.61;104825;1291;22742;-91
2022/09/06 10:41:32;;;;;;;5.90;3.10;;;;;;;20.54;41.53;98471.37;105203;1290;25362;-91
2022/09/06 10:44:24;;;;;;;7.70;3.70;;;;;;;20.65;41.82;98475.17;104310;1297;22582;-89
2022/09/06 10:47:23;;;;;;;8.40;3.30;;;;;;;20.74;41.14;98470.41;104364;1297;22961;-91
2022/09/06 10:49:55;;;;;;;9.20;3.60;;;;;;;20.85;40.95;98472.02;104779;1297;26281;-90
2022/09/06 10:52:33;;;;;;;9.00;3.60;;;;;;;21.00;41.06;98475.05;105505;1296;22573;-92
2022/09/06 10:55:04;;;;;;;10.80;3.40;;;;;;;21.16;41.06;98472.71;104956;1297;22713;-92
2022/09/06 10:57:52;;;;;;;7.30;3.10;;;;;;;21.26;41.05;98470.98;105313;1293;22573;-90
2022/09/06 11:00:48;;;;;;;10.90;3.50;;;;;;;21.29;40.77;98475.29;105349;1296;22709;-90
2022/09/06 11:03:31;;;;;;;12.80;3.60;;;;;;;21.34;41.01;98473.99;105469;1294;23994;-91
2022/09/06 11:06:24;;;;;;;10.80;3.50;;;;;;;21.33;40.93;98475.92;105254;1296;24167;-89
2022/09/06 11:09:15;;;;;;;10.70;3.10;;;;;;;21.26;40.91;98472.95;105618;1290;24937;-92
2022/09/06 11:11:57;;;;;;;9.40;3.00;;;;;;;21.32;40.84;98469.64;105714;1287;25333;-90
2022/09/06 11:14:27;;;;;;;8.60;3.00;;;;;;;21.43;40.72;98469.77;105661;1287;23829;-92
2022/09/06 11:17:22;;;;;;;9.40;3.40;;;;;;;21.47;40.81;98466.09;105727;1287;24386;-89
2022/09/06 11:20:07;;;;;;;11.20;3.10;;;;;;;21.49;40.61;98460.66;106292;1279;22630;-90
2022/09/06 11:22:50;;;;;;;7.70;2.70;;;;;;;21.61;40.08;98454.35;106096;1279;24327;-91
2022/09/06 11:25:25;;;;;;;7.70;3.50;;;;;;;21.75;40.25;98458.81;106196;1279;22553;-91
2022/09/06 11:27:59;;;;;;;9.20;3.20;;;;;;;22.00;40.35;98454.06;106181;1279;22703;-90
2022/09/06 11:30:29;;;;;;;9.00;3.40;;;;;;;22.27;39.70;98450.17;105956;1279;22704;-93
2022/09/06 11:33:15;;;;;;;9.20;3.00;;;;;;;22.45;39.65;98447.05;106075;1279;25413;-91
2022/09/06 11:35:44;;;;;;;7.20;3.10;;;;;;;22.55;39.51;98450.38;105841;1279;24293;-86
2022/09/06 11:38:15;;;;;;;6.80;3.70;;;;;;;22.54;38.38;98446.52;106305;1279;23966;-90
2022/09/06 11:40:47;;;;;;;8.20;3.40;;;;;;;22.36;38.21;98449.54;106205;1279;22588;-91
2022/09/06 11:43:46;;;;;;;11.70;3.40;;;;;;;22.11;38.87;98449.90;106151;1279;22718;-91
2022/09/06 11:46:53;;;;;;;12.40;3.40;;;;;;;21.98;38.51;98441.19;106003;1279;22538;-90
2022/09/06 11:49:33;;;;;;;8.40;3.80;;;;;;;21.91;38.63;98440.08;105176;1285;22589;-89
2022/09/06 11:52:22;;;;;;;7.00;3.30;;;;;;;21.90;38.58;98439.37;105263;1285;22557;-89
2022/09/06 11:54:52;;;;;;;10.30;3.60;;;;;;;21.97;38.72;98440.60;105264;1285;24303;-89
2022/09/06 11:57:21;;;;;;;7.00;3.30;;;;;;;22.12;38.60;98440.05;105294;1284;22614;-90
2022/09/06 12:00:00;;;;;;;10.00;2.90;;;;;;;22.32;38.69;98437.48;105336;1285;24500;-90